Time;durP1;ratioP1;P1;durP2;ratioP2;P2;SDS_P1;SDS_P2;PMS_P1;PMS_P2;Temp;Humidity;BMP_temperature;BMP_pressure;BME280_temperature;BME280_humidity;BME280_pressure;Samples;Min_cycle;Max_cycle;Signal;HPM_P1;HPM_P2
2021/01/11 00:02:22;;;;;;;7.13;4.70;;;6.90;74.30;;;;;;5071190;28;20055;-72
2021/01/11 00:04:48;;;;;;;8.15;4.93;;;7.00;73.80;;;;;;5073190;28;20021;-72
2021/01/11 00:07:14;;;;;;;8.32;4.80;;;6.90;73.70;;;;;;5073520;28;20506;-71
2021/01/11 00:09:40;;;;;;;7.63;4.22;;;6.90;73.50;;;;;;5074146;28;20035;-73
2021/01/11 00:12:06;;;;;;;6.63;4.50;;;6.90;73.70;;;;;;5073855;28;20056;-70
2021/01/11 00:14:32;;;;;;;8.68;4.75;;;7.00;73.50;;;;;;5073451;28;20134;-73
2021/01/11 00:16:58;;;;;;;7.55;4.88;;;7.00;73.50;;;;;;5072704;28;20070;-72
2021/01/11 00:19:24;;;;;;;7.07;4.65;;;7.00;73.20;;;;;;5072437;28;20025;-72
2021/01/11 00:21:49;;;;;;;7.05;4.47;;;7.00;73.40;;;;;;5072475;28;20027;-72
2021/01/11 00:24:15;;;;;;;7.95;4.40;;;7.00;73.30;;;;;;5072297;28;20029;-72
2021/01/11 00:26:52;;;;;;;7.13;4.22;;;7.00;73.10;;;;;;5072381;28;20032;-71
2021/01/11 00:29:18;;;;;;;6.65;4.38;;;7.00;73.00;;;;;;5074103;28;20036;-73
2021/01/11 00:31:44;;;;;;;8.35;4.35;;;6.90;73.00;;;;;;5076266;28;20070;-73
2021/01/11 00:34:10;;;;;;;6.55;4.10;;;7.00;73.30;;;;;;5076377;28;20024;-72
2021/01/11 00:36:36;;;;;;;6.10;3.95;;;6.90;73.00;;;;;;5076223;28;20476;-72
2021/01/11 00:39:02;;;;;;;6.10;4.15;;;6.90;73.20;;;;;;5076104;28;20493;-74
2021/01/11 00:41:28;;;;;;;6.32;4.15;;;6.90;73.30;;;;;;5074648;28;20122;-72
2021/01/11 00:43:54;;;;;;;6.75;3.97;;;7.00;73.40;;;;;;5074581;28;20024;-73
2021/01/11 00:46:24;;;;;;;6.70;4.05;;;7.00;73.00;;;;;;5074480;28;20032;-72
2021/01/11 00:48:50;;;;;;;6.10;3.90;;;7.00;72.70;;;;;;5076087;28;20048;-71
2021/01/11 00:51:16;;;;;;;7.47;4.43;;;7.10;72.70;;;;;;5075700;28;20021;-71
2021/01/11 00:53:44;;;;;;;6.57;3.67;;;7.10;72.50;;;;;;5076192;28;20027;-71
2021/01/11 00:56:13;;;;;;;5.80;3.50;;;7.10;72.70;;;;;;5076119;28;20020;-71
2021/01/11 00:58:39;;;;;;;5.47;3.50;;;7.00;72.70;;;;;;5075716;28;20043;-72
2021/01/11 01:01:05;;;;;;;5.93;3.60;;;6.90;72.90;;;;;;5075433;28;20422;-71
2021/01/11 01:03:31;;;;;;;5.38;3.30;;;6.90;72.50;;;;;;5075549;28;20025;-72
2021/01/11 01:05:58;;;;;;;6.25;3.30;;;6.70;72.30;;;;;;5075659;28;20025;-73
2021/01/11 01:08:23;;;;;;;5.38;3.40;;;6.80;73.10;;;;;;5075077;28;20397;-71
2021/01/11 01:10:49;;;;;;;5.80;3.63;;;6.90;72.70;;;;;;5087452;22;20053;-66
2021/01/11 01:13:15;;;;;;;4.85;3.17;;;7.00;72.50;;;;;;5075994;28;20032;-67
2021/01/11 01:15:41;;;;;;;5.43;3.50;;;7.00;72.20;;;;;;5075815;28;20062;-67
2021/01/11 01:18:07;;;;;;;6.68;3.63;;;7.10;71.80;;;;;;5075960;28;20390;-68
2021/01/11 01:20:32;;;;;;;5.35;3.03;;;7.10;71.40;;;;;;5075333;28;20469;-69
2021/01/11 01:22:58;;;;;;;5.95;3.45;;;7.10;71.00;;;;;;5075737;28;20397;-69
2021/01/11 01:25:24;;;;;;;5.32;3.30;;;7.10;71.30;;;;;;5075664;28;20457;-68
2021/01/11 01:27:49;;;;;;;4.93;3.10;;;7.10;71.20;;;;;;5076076;28;20085;-69
2021/01/11 01:30:15;;;;;;;5.55;3.40;;;7.10;71.10;;;;;;5076177;28;20028;-71
2021/01/11 01:32:41;;;;;;;4.95;3.28;;;7.00;71.00;;;;;;5075589;28;20122;-71
2021/01/11 01:35:08;;;;;;;6.72;3.83;;;6.90;71.20;;;;;;5075466;28;20470;-71
2021/01/11 01:37:34;;;;;;;5.03;3.25;;;6.80;71.90;;;;;;5075515;28;20474;-68
2021/01/11 01:39:59;;;;;;;4.80;3.03;;;6.80;71.90;;;;;;5074903;28;20020;-69
2021/01/11 01:42:25;;;;;;;5.38;3.10;;;6.80;72.00;;;;;;5075149;28;20086;-67
2021/01/11 01:44:51;;;;;;;5.93;3.33;;;6.80;71.80;;;;;;5075450;28;20140;-66
2021/01/11 01:47:16;;;;;;;5.70;3.38;;;6.80;71.60;;;;;;5075380;28;20089;-71
2021/01/11 01:49:43;;;;;;;6.53;3.42;;;6.80;71.50;;;;;;5082366;28;20039;-67
2021/01/11 01:52:09;;;;;;;5.68;3.22;;;6.80;71.40;;;;;;5079783;28;20047;-68
2021/01/11 01:54:35;;;;;;;6.43;3.65;;;6.80;71.80;;;;;;5074907;28;20549;-69
2021/01/11 01:57:03;;;;;;;5.60;3.53;;;6.70;71.90;;;;;;5075160;28;20126;-69
2021/01/11 01:59:28;;;;;;;7.28;4.22;;;6.70;71.80;;;;;;5075001;28;20031;-67
2021/01/11 02:01:55;;;;;;;7.10;4.40;;;6.60;72.20;;;;;;5073594;28;20040;-69
2021/01/11 02:04:21;;;;;;;6.40;3.65;;;6.60;72.20;;;;;;5074831;28;20036;-68
2021/01/11 02:06:52;;;;;;;5.45;3.50;;;6.60;72.30;;;;;;5074754;28;20098;-71
2021/01/11 02:09:44;;;;;;;6.07;3.35;;;6.60;72.00;;;;;;5073675;28;20036;-69
2021/01/11 02:12:21;;;;;;;6.40;3.67;;;6.60;72.60;;;;;;5074745;28;20047;-69
2021/01/11 02:15:02;;;;;;;5.63;3.72;;;6.50;72.30;;;;;;5074523;28;20099;-68
2021/01/11 02:17:50;;;;;;;6.30;3.60;;;6.50;72.20;;;;;;5074528;28;20528;-71
2021/01/11 02:20:47;;;;;;;7.57;3.45;;;6.60;72.60;;;;;;5074361;28;20016;-67
2021/01/11 02:23:24;;;;;;;5.60;3.53;;;6.60;72.10;;;;;;5074447;28;20388;-72
2021/01/11 02:25:57;;;;;;;6.13;3.92;;;6.70;72.00;;;;;;5074268;28;20029;-73
2021/01/11 02:28:37;;;;;;;3.73;2.87;;;6.70;71.50;;;;;;5074766;28;20043;-68
2021/01/11 02:31:05;;;;;;;6.07;3.42;;;6.80;71.50;;;;;;5074362;28;20021;-72
2021/01/11 02:33:33;;;;;;;6.97;3.80;;;6.80;71.20;;;;;;5074241;28;20056;-69
2021/01/11 02:36:06;;;;;;;6.07;4.00;;;6.80;71.00;;;;;;5074159;28;20497;-69
2021/01/11 02:38:33;;;;;;;6.05;4.13;;;6.80;71.20;;;;;;5073858;28;20032;-67
2021/01/11 02:41:00;;;;;;;6.40;3.90;;;6.70;71.20;;;;;;5074294;28;20036;-68
2021/01/11 02:43:26;;;;;;;7.07;3.88;;;6.70;71.40;;;;;;5073985;28;20057;-70
2021/01/11 02:45:52;;;;;;;8.55;3.90;;;6.60;71.20;;;;;;5074437;28;20024;-69
2021/01/11 02:48:20;;;;;;;7.07;4.30;;;6.70;71.30;;;;;;5073737;28;20531;-66
2021/01/11 02:51:21;;;;;;;6.30;3.88;;;6.70;71.20;;;;;;5073676;28;20036;-66
2021/01/11 02:54:11;;;;;;;6.72;4.05;;;6.70;71.40;;;;;;5073975;28;20046;-68
2021/01/11 02:56:45;;;;;;;6.13;3.70;;;6.70;71.00;;;;;;5073924;28;20048;-69
2021/01/11 02:59:36;;;;;;;5.85;3.90;;;6.60;71.60;;;;;;5074042;28;20024;-70
2021/01/11 03:02:05;;;;;;;5.63;3.55;;;6.60;71.60;;;;;;5073861;28;20109;-66
2021/01/11 03:04:32;;;;;;;5.82;3.65;;;6.60;70.90;;;;;;5073571;28;20099;-69
2021/01/11 03:07:02;;;;;;;6.43;4.03;;;6.60;71.00;;;;;;5073679;28;20040;-69
2021/01/11 03:09:29;;;;;;;5.63;3.55;;;6.50;71.10;;;;;;5073589;28;20028;-67
2021/01/11 03:11:55;;;;;;;6.50;4.22;;;6.40;71.00;;;;;;5073477;28;20078;-72
2021/01/11 03:14:22;;;;;;;5.68;3.80;;;6.40;71.00;;;;;;5072336;28;20544;-69
2021/01/11 03:16:47;;;;;;;6.45;3.72;;;6.40;71.00;;;;;;5073348;28;20051;-69
2021/01/11 03:19:13;;;;;;;5.70;3.63;;;6.20;70.90;;;;;;5073213;28;20444;-67
2021/01/11 03:21:40;;;;;;;6.82;3.97;;;6.20;71.20;;;;;;5073583;28;20028;-71
2021/01/11 03:24:07;;;;;;;5.60;3.60;;;6.30;71.10;;;;;;5073546;28;20059;-69
2021/01/11 03:26:32;;;;;;;6.93;3.65;;;6.40;70.70;;;;;;5073640;28;20489;-68
2021/01/11 03:28:58;;;;;;;6.45;3.50;;;6.30;70.60;;;;;;5073454;28;20094;-68
2021/01/11 03:31:24;;;;;;;8.43;4.10;;;6.20;70.30;;;;;;5073419;28;20029;-66
2021/01/11 03:33:50;;;;;;;7.60;3.63;;;6.30;70.30;;;;;;5073400;28;20056;-67
2021/01/11 03:36:17;;;;;;;5.63;3.83;;;6.30;70.50;;;;;;5073269;28;20063;-66
2021/01/11 03:38:42;;;;;;;10.32;3.75;;;6.40;70.50;;;;;;5073172;28;20020;-66
2021/01/11 03:41:08;;;;;;;5.47;3.22;;;6.50;70.40;;;;;;5071893;28;20025;-69
2021/01/11 03:43:40;;;;;;;5.93;3.67;;;6.60;70.10;;;;;;5073411;28;20039;-75
2021/01/11 03:46:07;;;;;;;6.85;3.90;;;6.60;70.00;;;;;;5072069;28;20425;-76
2021/01/11 03:48:33;;;;;;;6.50;3.97;;;6.60;69.30;;;;;;5073268;28;20120;-74
2021/01/11 03:51:02;;;;;;;6.68;3.33;;;6.70;69.50;;;;;;5072961;28;20442;-73
2021/01/11 03:53:28;;;;;;;6.90;3.40;;;6.60;69.00;;;;;;5073443;28;20074;-73
2021/01/11 03:55:55;;;;;;;9.45;3.60;;;6.50;69.30;;;;;;5073130;28;20020;-74
2021/01/11 03:58:21;;;;;;;6.57;3.38;;;6.40;70.00;;;;;;5073399;28;20025;-72
2021/01/11 04:00:50;;;;;;;6.32;3.65;;;6.50;69.90;;;;;;5073024;28;20027;-72
2021/01/11 04:03:17;;;;;;;5.65;3.53;;;6.40;69.60;;;;;;5073361;28;20024;-77
2021/01/11 04:05:47;;;;;;;8.38;3.60;;;6.40;69.90;;;;;;5077534;28;20095;-73
2021/01/11 04:08:14;;;;;;;5.05;3.55;;;6.40;69.60;;;;;;5077358;28;20032;-70
2021/01/11 04:10:39;;;;;;;6.13;3.63;;;6.40;69.80;;;;;;5076830;28;20040;-69
2021/01/11 04:13:05;;;;;;;5.25;3.45;;;6.30;69.60;;;;;;5077264;28;20021;-74
2021/01/11 04:15:32;;;;;;;5.78;3.53;;;6.30;70.00;;;;;;5076984;28;20028;-71
2021/01/11 04:17:58;;;;;;;5.72;3.50;;;6.30;70.20;;;;;;5077033;28;20032;-71
2021/01/11 04:20:24;;;;;;;5.38;3.72;;;6.30;70.30;;;;;;5076850;28;20054;-74
2021/01/11 04:22:50;;;;;;;6.38;3.78;;;6.30;70.20;;;;;;5076769;28;20024;-73
2021/01/11 04:25:16;;;;;;;6.28;3.58;;;6.30;70.00;;;;;;5075550;28;20040;-73
2021/01/11 04:27:42;;;;;;;5.85;3.58;;;6.30;69.80;;;;;;5076825;28;20039;-72
2021/01/11 04:30:08;;;;;;;5.15;3.20;;;6.40;69.80;;;;;;5076637;28;20025;-72
2021/01/11 04:32:35;;;;;;;7.75;3.53;;;6.40;70.20;;;;;;5077172;28;20415;-66
2021/01/11 04:35:05;;;;;;;8.15;3.38;;;6.50;69.40;;;;;;5080139;28;20051;-73
2021/01/11 04:37:30;;;;;;;6.03;3.95;;;6.50;69.10;;;;;;5077748;28;20497;-69
2021/01/11 04:39:56;;;;;;;6.28;3.40;;;6.50;69.10;;;;;;5080058;28;20107;-72
2021/01/11 04:42:40;;;;;;;5.18;3.35;;;6.40;68.90;;;;;;5080112;28;20097;-73
2021/01/11 04:45:06;;;;;;;;;;;6.30;69.20;;;;;;5085388;28;20036;-70
2021/01/11 04:47:34;;;;;;;6.03;3.33;;;6.30;69.90;;;;;;5078184;28;19995;-68
2021/01/11 04:50:04;;;;;;;4.95;3.30;;;6.40;69.00;;;;;;5076281;28;20026;-71
2021/01/11 04:52:32;;;;;;;5.75;3.55;;;6.40;68.90;;;;;;5076025;28;20084;-68
2021/01/11 04:55:05;;;;;;;7.80;3.28;;;6.50;69.10;;;;;;5076203;28;20112;-69
2021/01/11 04:57:40;;;;;;;6.47;3.45;;;6.60;69.50;;;;;;5076250;28;20029;-71
2021/01/11 05:00:08;;;;;;;4.88;3.30;;;6.70;68.50;;;;;;5076190;28;20028;-68
2021/01/11 05:02:44;;;;;;;5.50;3.50;;;6.70;69.00;;;;;;5075954;28;20051;-75
2021/01/11 05:05:11;;;;;;;7.30;3.97;;;6.70;68.60;;;;;;5075883;28;20028;-72
2021/01/11 05:07:37;;;;;;;5.95;3.38;;;6.70;69.10;;;;;;5075860;28;20060;-70
2021/01/11 05:10:04;;;;;;;5.28;3.50;;;6.70;68.40;;;;;;5075544;28;20068;-71
2021/01/11 05:12:30;;;;;;;5.82;3.38;;;6.60;68.70;;;;;;5075926;28;20355;-72
2021/01/11 05:15:20;;;;;;;5.70;3.60;;;6.60;69.10;;;;;;5075109;28;20033;-70
2021/01/11 05:17:46;;;;;;;4.55;3.20;;;6.60;68.70;;;;;;5075898;28;20126;-68
2021/01/11 05:20:13;;;;;;;5.63;3.47;;;6.60;68.40;;;;;;5076549;28;20115;-70
2021/01/11 05:22:48;;;;;;;6.10;3.38;;;6.60;68.50;;;;;;5077608;28;20444;-71
2021/01/11 05:25:18;;;;;;;7.28;3.63;;;6.60;69.00;;;;;;5075659;28;20504;-70
2021/01/11 05:27:45;;;;;;;5.63;3.20;;;6.70;69.10;;;;;;5075450;28;20040;-67
2021/01/11 05:30:36;;;;;;;6.10;3.70;;;6.70;68.50;;;;;;5075373;28;20033;-67
2021/01/11 05:33:02;;;;;;;7.30;3.78;;;6.60;68.50;;;;;;5075126;28;20033;-69
2021/01/11 05:35:27;;;;;;;5.60;3.40;;;6.70;68.30;;;;;;5075301;28;20107;-71
2021/01/11 05:37:54;;;;;;;5.78;3.72;;;6.70;68.20;;;;;;5075299;28;20082;-67
2021/01/11 05:40:24;;;;;;;6.55;3.88;;;6.80;68.30;;;;;;5075056;28;20020;-67
2021/01/11 05:43:00;;;;;;;5.43;3.42;;;6.80;68.60;;;;;;5075261;28;20040;-71
2021/01/11 05:45:33;;;;;;;9.38;3.75;;;6.90;67.90;;;;;;5075282;28;20377;-66
2021/01/11 05:48:08;;;;;;;7.68;4.43;;;6.90;68.00;;;;;;5073932;28;20043;-69
2021/01/11 05:50:44;;;;;;;6.45;3.40;;;6.90;68.20;;;;;;5075352;28;20074;-70
2021/01/11 05:53:23;;;;;;;7.38;4.00;;;6.90;67.90;;;;;;5074959;28;20074;-67
2021/01/11 05:55:51;;;;;;;5.90;3.70;;;6.80;68.50;;;;;;5074910;28;20020;-67
2021/01/11 05:58:20;;;;;;;7.43;3.25;;;6.80;67.60;;;;;;5074769;28;20426;-65
2021/01/11 06:00:48;;;;;;;5.85;3.90;;;6.80;67.90;;;;;;5074768;28;20547;-70
2021/01/11 06:03:14;;;;;;;4.88;3.28;;;6.90;68.50;;;;;;5074878;28;20068;-67
2021/01/11 06:05:41;;;;;;;7.80;3.70;;;6.90;67.70;;;;;;5074471;28;20105;-68
2021/01/11 06:08:10;;;;;;;8.15;4.05;;;6.80;67.90;;;;;;5074743;28;20055;-70
2021/01/11 06:10:37;;;;;;;8.43;3.80;;;6.80;68.20;;;;;;5074824;28;20486;-66
2021/01/11 06:13:09;;;;;;;6.05;3.60;;;6.80;67.80;;;;;;5074900;28;20031;-68
2021/01/11 06:15:37;;;;;;;6.67;3.80;;;6.80;67.80;;;;;;5074783;28;20438;-75
2021/01/11 06:18:08;;;;;;;6.40;3.97;;;6.80;67.70;;;;;;5073799;28;20534;-74
2021/01/11 06:20:34;;;;;;;7.38;3.92;;;6.80;68.10;;;;;;5074185;28;20024;-73
2021/01/11 06:23:02;;;;;;;7.65;4.65;;;6.80;68.10;;;;;;5073712;28;20050;-76
2021/01/11 06:25:33;;;;;;;8.02;4.10;;;6.80;67.80;;;;;;5074432;28;20071;-74
2021/01/11 06:28:07;;;;;;;6.25;4.40;;;6.80;68.30;;;;;;5073726;28;20029;-71
2021/01/11 06:30:37;;;;;;;;;;;6.80;68.40;;;;;;5074745;28;20381;-71
2021/01/11 06:33:08;;;;;;;7.20;4.40;;;6.80;68.40;;;;;;5074306;28;20194;-73
2021/01/11 06:35:48;;;;;;;8.75;3.92;;;6.70;67.90;;;;;;5074263;28;20028;-67
2021/01/11 06:38:20;;;;;;;8.02;4.45;;;6.70;68.40;;;;;;5074372;28;20385;-76
2021/01/11 06:40:51;;;;;;;8.55;4.93;;;6.80;68.50;;;;;;5074149;28;20104;-71
2021/01/11 06:43:21;;;;;;;10.68;4.38;;;6.90;67.70;;;;;;5074003;28;20477;-68
2021/01/11 06:45:48;;;;;;;9.40;4.68;;;6.90;67.50;;;;;;5074156;28;20021;-66
2021/01/11 06:48:23;;;;;;;7.72;4.78;;;6.90;67.60;;;;;;5071905;28;20111;-72
2021/01/11 06:50:50;;;;;;;7.43;4.82;;;6.90;67.80;;;;;;5073008;28;20040;-68
2021/01/11 06:53:37;;;;;;;10.13;5.72;;;6.90;67.90;;;;;;5072868;28;20467;-71
2021/01/11 06:56:12;;;;;;;7.47;4.93;;;6.90;67.80;;;;;;5072899;28;20120;-70
2021/01/11 06:58:40;;;;;;;7.22;4.32;;;7.00;68.00;;;;;;5073108;28;20058;-73
2021/01/11 07:01:13;;;;;;;9.45;4.88;;;7.00;67.60;;;;;;5073065;28;20025;-74
2021/01/11 07:03:43;;;;;;;11.27;5.05;;;7.00;67.30;;;;;;5072140;28;20050;-68
2021/01/11 07:06:32;;;;;;;7.97;4.43;;;7.00;67.60;;;;;;5073109;28;20027;-67
2021/01/11 07:09:10;;;;;;;13.10;5.22;;;7.00;67.90;;;;;;5073010;28;20101;-66
2021/01/11 07:11:41;;;;;;;9.38;3.78;;;7.10;67.50;;;;;;5072544;28;20491;-67
2021/01/11 07:14:07;;;;;;;6.75;4.07;;;7.00;67.70;;;;;;5072725;28;20058;-69
2021/01/11 07:16:56;;;;;;;5.85;3.72;;;7.10;67.20;;;;;;5073124;28;20053;-68
2021/01/11 07:19:22;;;;;;;6.68;3.88;;;7.00;67.30;;;;;;5066823;28;20072;-69
2021/01/11 07:21:51;;;;;;;6.65;3.80;;;7.00;67.30;;;;;;5072553;28;20457;-67
2021/01/11 07:24:17;;;;;;;5.90;4.10;;;7.00;66.90;;;;;;5072908;28;20404;-72
2021/01/11 07:26:43;;;;;;;5.93;3.50;;;7.10;67.10;;;;;;5072649;28;20021;-69
2021/01/11 07:29:11;;;;;;;7.50;4.55;;;7.10;67.00;;;;;;5072783;28;20031;-68
2021/01/11 07:31:39;;;;;;;6.15;3.75;;;7.10;66.70;;;;;;5072542;28;20029;-71
2021/01/11 07:34:18;;;;;;;6.68;4.07;;;7.10;67.00;;;;;;5072462;28;20037;-66
2021/01/11 07:36:47;;;;;;;6.40;3.58;;;7.10;67.00;;;;;;5072651;28;20055;-68
2021/01/11 07:39:18;;;;;;;9.15;4.30;;;7.20;66.70;;;;;;5073654;28;20024;-73
2021/01/11 07:41:49;;;;;;;6.13;3.88;;;7.20;66.80;;;;;;5074827;28;20055;-72
2021/01/11 07:44:22;;;;;;;8.02;3.85;;;7.20;66.70;;;;;;5072763;28;20378;-68
2021/01/11 07:46:52;;;;;;;4.87;2.63;;;7.30;66.90;;;;;;5071147;28;20383;-71
2021/01/11 07:49:18;;;;;;;6.38;3.60;;;7.30;66.80;;;;;;5072841;28;20033;-67
2021/01/11 07:51:48;;;;;;;7.50;4.13;;;7.40;66.40;;;;;;5072690;28;20023;-68
2021/01/11 07:54:22;;;;;;;7.55;3.78;;;7.40;65.90;;;;;;5072447;28;20032;-69
2021/01/11 07:56:49;;;;;;;5.43;3.45;;;7.40;66.10;;;;;;5070988;28;20032;-70
2021/01/11 07:59:16;;;;;;;10.93;4.10;;;7.50;65.40;;;;;;5072419;28;20303;-68
2021/01/11 08:01:44;;;;;;;7.72;4.20;;;7.50;65.60;;;;;;5072629;28;20020;-73
2021/01/11 08:04:11;;;;;;;5.35;3.30;;;7.50;65.40;;;;;;5073210;28;20031;-73
2021/01/11 08:06:57;;;;;;;7.90;3.95;;;7.50;65.40;;;;;;5072914;28;20054;-71
2021/01/11 08:09:27;;;;;;;8.50;4.70;;;7.60;65.60;;;;;;5072335;28;20031;-69
2021/01/11 08:12:11;;;;;;;11.75;3.72;;;7.60;65.30;;;;;;5072418;28;20398;-74
2021/01/11 08:14:37;;;;;;;10.32;3.50;;;7.60;65.40;;;;;;5072507;28;20500;-74
2021/01/11 08:17:11;;;;;;;9.23;3.67;;;7.60;65.10;;;;;;5072184;28;20485;-78
2021/01/11 08:19:40;;;;;;;12.95;3.58;;;7.70;65.40;;;;;;5071988;28;20039;-68
2021/01/11 08:22:09;;;;;;;9.40;4.13;;;7.70;65.30;;;;;;5072304;28;20025;-75
2021/01/11 08:24:37;;;;;;;8.00;4.03;;;7.80;65.00;;;;;;5070945;28;20031;-76
2021/01/11 08:27:10;;;;;;;6.63;3.47;;;7.90;64.80;;;;;;5071217;28;20072;-74
2021/01/11 08:29:38;;;;;;;10.00;3.80;;;7.90;64.10;;;;;;5072530;28;20101;-78
2021/01/11 08:32:08;;;;;;;9.93;3.55;;;7.90;64.20;;;;;;5071046;28;20033;-78
2021/01/11 08:34:34;;;;;;;9.07;3.65;;;8.00;64.00;;;;;;5072197;28;20067;-77
2021/01/11 08:37:00;;;;;;;12.52;3.92;;;8.00;63.70;;;;;;5072346;28;20052;-74
2021/01/11 08:39:26;;;;;;;6.72;3.72;;;8.10;64.20;;;;;;5072173;28;20037;-77
2021/01/11 08:41:54;;;;;;;18.10;4.40;;;8.10;63.80;;;;;;5072082;28;20021;-76
2021/01/11 08:44:39;;;;;;;9.25;3.50;;;8.10;63.90;;;;;;5071922;28;20020;-71
2021/01/11 08:47:09;;;;;;;10.52;4.60;;;8.10;63.10;;;;;;5071890;28;20043;-77
2021/01/11 08:49:57;;;;;;;9.00;3.30;;;8.10;62.70;;;;;;5072378;28;20350;-72
2021/01/11 08:52:33;;;;;;;6.22;3.47;;;8.20;63.20;;;;;;5075574;28;20105;-71
2021/01/11 08:55:12;;;;;;;11.10;3.85;;;8.20;62.90;;;;;;5075712;28;20040;-69
2021/01/11 08:57:38;;;;;;;7.88;3.50;;;8.30;63.10;;;;;;5075730;28;20032;-76
2021/01/11 09:00:12;;;;;;;7.80;3.53;;;8.40;62.50;;;;;;5075574;28;20461;-74
2021/01/11 09:02:46;;;;;;;6.05;3.30;;;8.30;62.10;;;;;;5075483;28;20037;-73
2021/01/11 09:05:23;;;;;;;10.48;4.40;;;8.30;62.10;;;;;;5075905;28;20029;-76
2021/01/11 09:07:55;;;;;;;7.78;3.40;;;8.30;62.50;;;;;;5075605;28;20033;-73
2021/01/11 09:10:34;;;;;;;7.60;3.63;;;8.20;62.20;;;;;;5074691;28;20044;-74
2021/01/11 09:13:19;;;;;;;7.13;3.60;;;8.30;62.60;;;;;;5075360;28;20469;-75
2021/01/11 09:15:49;;;;;;;7.70;3.42;;;8.30;62.60;;;;;;5073759;28;20538;-76
2021/01/11 09:18:15;;;;;;;6.95;3.17;;;8.40;61.80;;;;;;5073901;28;20032;-78
2021/01/11 09:20:43;;;;;;;12.63;4.10;;;8.50;62.30;;;;;;5075064;28;20044;-76
2021/01/11 09:23:09;;;;;;;8.32;3.53;;;8.50;62.40;;;;;;5075060;28;20073;-77
2021/01/11 09:25:36;;;;;;;6.05;3.30;;;8.50;61.50;;;;;;5073590;28;20024;-78
2021/01/11 09:28:07;;;;;;;7.78;3.63;;;8.50;61.00;;;;;;5074940;28;20028;-76
2021/01/11 09:30:34;;;;;;;6.68;3.13;;;8.40;61.70;;;;;;5074888;28;20038;-76
2021/01/11 09:33:00;;;;;;;6.72;3.35;;;8.40;61.70;;;;;;5074766;28;20028;-74
2021/01/11 09:35:26;;;;;;;10.10;4.88;;;8.30;61.60;;;;;;5074892;28;20024;-77
2021/01/11 09:37:52;;;;;;;8.35;3.50;;;8.30;62.00;;;;;;5074899;28;20446;-76
2021/01/11 09:40:20;;;;;;;11.90;3.85;;;8.30;61.80;;;;;;5074593;28;20066;-77
2021/01/11 09:42:47;;;;;;;6.18;3.22;;;8.30;61.20;;;;;;5074856;28;20059;-78
2021/01/11 09:45:14;;;;;;;7.95;3.95;;;8.30;61.70;;;;;;5074421;28;20020;-75
2021/01/11 09:47:43;;;;;;;8.25;4.15;;;8.30;61.90;;;;;;5074444;28;20043;-77
2021/01/11 09:50:10;;;;;;;8.55;4.20;;;8.30;61.70;;;;;;5074421;28;20428;-76
2021/01/11 09:52:37;;;;;;;8.32;3.67;;;8.40;61.10;;;;;;5074450;28;20020;-76
2021/01/11 09:55:04;;;;;;;7.15;3.40;;;8.50;61.00;;;;;;5074029;28;20021;-74
2021/01/11 09:57:35;;;;;;;9.75;3.85;;;8.50;60.60;;;;;;5074312;28;20021;-78
2021/01/11 10:00:00;;;;;;;6.07;3.13;;;8.60;60.90;;;;;;5072977;28;20016;-78
2021/01/11 10:02:26;;;;;;;8.98;3.50;;;8.60;60.60;;;;;;5073748;28;20120;-77
2021/01/11 10:04:52;;;;;;;7.68;4.03;;;8.60;60.80;;;;;;5056436;28;20087;-75
2021/01/11 10:07:19;;;;;;;8.30;3.58;;;8.50;60.80;;;;;;5074017;28;20116;-73
2021/01/11 10:09:44;;;;;;;7.10;3.65;;;8.40;60.50;;;;;;5072503;28;20070;-77
2021/01/11 10:12:10;;;;;;;9.13;4.30;;;8.40;60.70;;;;;;5074261;28;20086;-75
2021/01/11 10:14:36;;;;;;;7.35;3.90;;;8.40;61.20;;;;;;5074312;28;20021;-74
2021/01/11 10:17:02;;;;;;;8.50;3.60;;;8.50;60.90;;;;;;5074792;28;20028;-78
2021/01/11 10:19:29;;;;;;;7.03;4.13;;;8.40;60.20;;;;;;5074484;28;20473;-78
2021/01/11 10:21:56;;;;;;;7.10;3.83;;;8.40;60.70;;;;;;5074216;28;20021;-77
2021/01/11 10:24:23;;;;;;;8.88;4.05;;;8.50;60.70;;;;;;5074123;28;20048;-73
2021/01/11 10:26:50;;;;;;;11.52;3.63;;;8.60;60.50;;;;;;5073837;28;20078;-71
2021/01/11 10:29:17;;;;;;;7.47;4.07;;;8.70;60.40;;;;;;5073940;28;20042;-72
2021/01/11 10:31:44;;;;;;;7.15;3.90;;;8.60;60.00;;;;;;5072806;28;20021;-70
2021/01/11 10:34:11;;;;;;;8.07;3.80;;;8.60;60.20;;;;;;5073384;28;20020;-76
2021/01/11 10:36:41;;;;;;;7.88;3.70;;;8.60;59.70;;;;;;5074372;28;20025;-72
2021/01/11 10:39:07;;;;;;;8.98;3.83;;;8.60;60.10;;;;;;5073403;28;20547;-68
2021/01/11 10:41:33;;;;;;;12.40;4.47;;;8.80;59.60;;;;;;5073786;28;20024;-76
2021/01/11 10:43:59;;;;;;;9.43;4.43;;;8.90;59.40;;;;;;5073474;28;20386;-73
2021/01/11 10:46:25;;;;;;;12.35;4.18;;;9.00;59.20;;;;;;5073424;28;20030;-71
2021/01/11 10:48:52;;;;;;;8.20;4.03;;;9.10;59.20;;;;;;5073399;28;20032;-76
2021/01/11 10:51:17;;;;;;;6.63;3.50;;;9.10;59.10;;;;;;5073045;28;20017;-72
2021/01/11 10:53:44;;;;;;;8.55;3.90;;;9.10;58.60;;;;;;5071694;28;20040;-75
2021/01/11 10:56:11;;;;;;;7.82;4.30;;;9.10;58.90;;;;;;5073155;28;20020;-70
2021/01/11 10:58:37;;;;;;;7.10;3.95;;;9.10;58.80;;;;;;5073050;28;20487;-72
2021/01/11 11:01:07;;;;;;;9.57;4.00;;;9.20;58.60;;;;;;5073081;28;20028;-71
2021/01/11 11:03:33;;;;;;;9.32;4.28;;;9.30;58.40;;;;;;5073024;28;20028;-72
2021/01/11 11:05:59;;;;;;;8.30;4.50;;;9.30;58.20;;;;;;5073091;28;20480;-73
2021/01/11 11:08:24;;;;;;;12.38;4.82;;;9.30;58.40;;;;;;5072719;28;20391;-72
2021/01/11 11:10:50;;;;;;;7.13;4.32;;;9.30;57.90;;;;;;5072831;28;20067;-69
2021/01/11 11:13:16;;;;;;;11.25;3.95;;;9.40;58.20;;;;;;5072196;28;20031;-73
2021/01/11 11:15:45;;;;;;;12.10;4.80;;;9.50;58.20;;;;;;5073240;28;20027;-74
2021/01/11 11:18:11;;;;;;;13.38;4.35;;;9.50;57.90;;;;;;5073031;28;20111;-71
2021/01/11 11:20:38;;;;;;;7.90;4.30;;;9.50;58.40;;;;;;5071343;28;20403;-75
2021/01/11 11:23:04;;;;;;;8.68;4.38;;;9.40;58.10;;;;;;5071571;28;20060;-75
2021/01/11 11:25:29;;;;;;;8.20;4.63;;;9.40;58.10;;;;;;5072794;28;20142;-71
2021/01/11 11:27:55;;;;;;;7.15;4.65;;;9.50;58.60;;;;;;5072634;28;20206;-71
2021/01/11 11:30:21;;;;;;;10.70;4.40;;;9.50;58.50;;;;;;5072642;28;20358;-73
2021/01/11 11:32:51;;;;;;;8.57;4.30;;;9.60;58.20;;;;;;5072866;28;20016;-68
2021/01/11 11:35:18;;;;;;;11.07;5.00;;;9.60;57.70;;;;;;5073213;28;20064;-71
2021/01/11 11:37:45;;;;;;;9.88;4.55;;;9.60;58.30;;;;;;5073157;28;20021;-69
2021/01/11 11:40:12;;;;;;;8.32;4.68;;;9.80;58.00;;;;;;5072618;28;20036;-75
2021/01/11 11:42:38;;;;;;;11.48;4.75;;;9.90;57.70;;;;;;5072805;28;20427;-71
2021/01/11 11:45:10;;;;;;;8.15;4.55;;;10.10;56.00;;;;;;5072521;28;20043;-70
2021/01/11 11:47:40;;;;;;;8.45;4.55;;;10.00;56.30;;;;;;5072652;28;20043;-74
2021/01/11 11:50:08;;;;;;;6.32;3.70;;;10.00;55.60;;;;;;5072738;28;20024;-68
2021/01/11 11:52:34;;;;;;;12.25;4.20;;;10.00;55.70;;;;;;5073145;28;20032;-70
2021/01/11 11:55:01;;;;;;;7.78;4.03;;;9.90;57.30;;;;;;5073041;28;20021;-69
2021/01/11 11:57:27;;;;;;;10.10;4.45;;;9.90;57.10;;;;;;5073109;28;20033;-78
2021/01/11 11:59:54;;;;;;;7.20;3.58;;;9.80;57.10;;;;;;5072721;28;20033;-69
2021/01/11 12:02:19;;;;;;;8.35;4.40;;;9.80;57.00;;;;;;5073117;28;20020;-68
2021/01/11 12:04:45;;;;;;;9.32;4.50;;;9.70;57.40;;;;;;5072488;28;20043;-69
2021/01/11 12:07:15;;;;;;;8.27;4.35;;;9.70;57.20;;;;;;5072924;28;20045;-71
2021/01/11 12:09:42;;;;;;;6.57;4.20;;;9.70;57.20;;;;;;5073268;28;20020;-71
2021/01/11 12:12:08;;;;;;;10.52;4.75;;;9.70;57.40;;;;;;5072786;28;20045;-73
2021/01/11 12:14:34;;;;;;;10.82;4.20;;;9.70;57.30;;;;;;5072724;28;20037;-74
2021/01/11 12:17:01;;;;;;;7.85;4.13;;;9.80;57.30;;;;;;5072799;28;20112;-74
2021/01/11 12:19:27;;;;;;;9.35;5.75;;;9.80;57.40;;;;;;5072356;28;20117;-70
2021/01/11 12:21:52;;;;;;;8.82;4.82;;;9.90;57.60;;;;;;5072635;28;20029;-74
2021/01/11 12:24:18;;;;;;;9.77;4.97;;;9.90;57.30;;;;;;5072606;28;20470;-69
2021/01/11 12:26:46;;;;;;;8.50;5.30;;;9.90;57.10;;;;;;5076688;28;20032;-69
2021/01/11 12:29:13;;;;;;;7.88;4.32;;;9.90;57.40;;;;;;5074814;28;20465;-69
2021/01/11 12:31:40;;;;;;;7.60;4.55;;;10.00;56.50;;;;;;5076464;28;20421;-71
2021/01/11 12:34:06;;;;;;;7.70;4.63;;;10.00;56.50;;;;;;5076461;28;20070;-70
2021/01/11 12:36:35;;;;;;;11.45;5.15;;;9.90;57.40;;;;;;5076364;28;20122;-70
2021/01/11 12:39:03;;;;;;;8.40;4.93;;;9.80;57.30;;;;;;5076374;28;20159;-73
2021/01/11 12:41:28;;;;;;;8.75;4.85;;;9.90;57.60;;;;;;5076151;28;20021;-72
2021/01/11 12:43:54;;;;;;;9.95;4.90;;;10.00;56.60;;;;;;5074542;28;20393;-74
2021/01/11 12:46:23;;;;;;;10.50;5.40;;;10.00;56.70;;;;;;5075973;28;20027;-73
2021/01/11 12:48:50;;;;;;;9.05;4.80;;;10.00;56.30;;;;;;5076056;28;20028;-72
2021/01/11 12:51:18;;;;;;;7.32;4.60;;;10.00;56.70;;;;;;5076019;28;20029;-71
2021/01/11 12:53:45;;;;;;;9.93;5.22;;;10.10;56.80;;;;;;5076047;28;20465;-71
2021/01/11 12:56:16;;;;;;;7.82;4.80;;;10.10;56.70;;;;;;5075955;28;20030;-77
2021/01/11 12:58:46;;;;;;;8.57;4.93;;;10.00;56.40;;;;;;5075920;28;20039;-76
2021/01/11 13:01:17;;;;;;;10.40;4.65;;;10.00;57.30;;;;;;5075397;28;20035;-75
2021/01/11 13:03:43;;;;;;;8.23;5.00;;;10.00;57.00;;;;;;5075665;28;20059;-77
2021/01/11 13:06:11;;;;;;;10.05;5.88;;;10.00;56.60;;;;;;5075527;28;20020;-76